sensor_id;sensor_type;location;lat;lon;timestamp;pressure;altitude;pressure_sealevel;temperature;humidity
14273;BME280;7220;49.450;11.052;2023-04-22T07:49:09;97641.34;;;14.95;60.18
14273;BME280;7220;49.450;11.052;2023-04-22T07:53:12;97634.44;;;15.37;56.88
14273;BME280;7220;49.450;11.052;2023-04-22T07:57:14;97630.94;;;15.57;56.31
14273;BME280;7220;49.450;11.052;2023-04-22T08:01:15;97621.91;;;15.70;55.15
14273;BME280;7220;49.450;11.052;2023-04-22T08:05:15;97636.56;;;15.87;54.31
14273;BME280;7220;49.450;11.052;2023-04-22T08:09:15;97637.16;;;15.90;53.98
14273;BME280;7220;49.450;11.052;2023-04-22T08:13:16;97630.84;;;16.13;53.65
14273;BME280;7220;49.450;11.052;2023-04-22T08:17:16;97620.88;;;16.24;52.89
14273;BME280;7220;49.450;11.052;2023-04-22T08:21:20;97632.59;;;16.23;52.59
14273;BME280;7220;49.450;11.052;2023-04-22T08:25:21;97630.63;;;16.26;52.72
14273;BME280;7220;49.450;11.052;2023-04-22T08:29:21;97626.16;;;16.36;51.88
14273;BME280;7220;49.450;11.052;2023-04-22T08:33:21;97627.06;;;16.46;51.97
14273;BME280;7220;49.450;11.052;2023-04-22T08:37:22;97630.91;;;16.53;52.68
14273;BME280;7220;49.450;11.052;2023-04-22T08:41:22;97622.88;;;16.63;51.22
14273;BME280;7220;49.450;11.052;2023-04-22T08:45:25;97627.19;;;16.76;51.68
14273;BME280;7220;49.450;11.052;2023-04-22T08:49:26;97622.53;;;17.18;49.98
14273;BME280;7220;49.450;11.052;2023-04-22T08:53:29;97626.81;;;17.41;49.73
14273;BME280;7220;49.450;11.052;2023-04-22T08:57:30;97615.78;;;17.63;48.04
14273;BME280;7220;49.450;11.052;2023-04-22T09:01:31;97605.19;;;17.72;48.46
14273;BME280;7220;49.450;11.052;2023-04-22T09:05:32;97593.41;;;18.12;47.39
14273;BME280;7220;49.450;11.052;2023-04-22T09:09:35;97596.91;;;18.32;46.18
14273;BME280;7220;49.450;11.052;2023-04-22T09:13:36;97593.00;;;18.54;45.98
14273;BME280;7220;49.450;11.052;2023-04-22T09:17:36;97585.59;;;18.66;46.03
14273;BME280;7220;49.450;11.052;2023-04-22T09:21:41;97586.69;;;18.73;45.42
14273;BME280;7220;49.450;11.052;2023-04-22T09:25:43;97586.69;;;18.73;45.38
14273;BME280;7220;49.450;11.052;2023-04-22T09:29:47;97572.91;;;18.76;45.04
14273;BME280;7220;49.450;11.052;2023-04-22T09:33:59;97585.19;;;18.89;45.52
14273;BME280;7220;49.450;11.052;2023-04-22T09:38:01;97579.50;;;18.92;45.76
14273;BME280;7220;49.450;11.052;2023-04-22T09:42:02;97583.50;;;18.88;45.91
14273;BME280;7220;49.450;11.052;2023-04-22T09:46:03;97577.78;;;19.01;45.50
14273;BME280;7220;49.450;11.052;2023-04-22T09:50:03;97566.25;;;19.08;44.91
14273;BME280;7220;49.450;11.052;2023-04-22T09:54:05;97578.78;;;19.18;44.00
14273;BME280;7220;49.450;11.052;2023-04-22T09:58:11;97577.19;;;19.25;43.67
14273;BME280;7220;49.450;11.052;2023-04-22T10:02:12;97558.03;;;19.28;43.79
14273;BME280;7220;49.450;11.052;2023-04-22T10:06:13;97551.72;;;19.37;43.17
14273;BME280;7220;49.450;11.052;2023-04-22T10:10:13;97549.31;;;19.52;42.82
14273;BME280;7220;49.450;11.052;2023-04-22T10:14:14;97554.06;;;19.77;42.68
14273;BME280;7220;49.450;11.052;2023-04-22T10:18:18;97537.81;;;20.13;41.28
14273;BME280;7220;49.450;11.052;2023-04-22T10:22:20;97537.59;;;20.32;40.77
14273;BME280;7220;49.450;11.052;2023-04-22T10:26:42;97543.22;;;20.74;39.42
14273;BME280;7220;49.450;11.052;2023-04-22T10:30:43;97543.28;;;20.90;39.12
14273;BME280;7220;49.450;11.052;2023-04-22T10:34:45;97535.41;;;21.22;38.38
14273;BME280;7220;49.450;11.052;2023-04-22T10:42:51;97525.81;;;21.36;38.72
14273;BME280;7220;49.450;11.052;2023-04-22T10:50:52;97523.09;;;21.44;36.96
14273;BME280;7220;49.450;11.052;2023-04-22T10:58:55;97509.91;;;21.49;37.34
14273;BME280;7220;49.450;11.052;2023-04-22T11:11:28;97501.06;;;22.13;35.67
14273;BME280;7220;49.450;11.052;2023-04-22T11:15:29;97498.69;;;22.27;35.68
14273;BME280;7220;49.450;11.052;2023-04-22T11:19:30;97501.19;;;22.76;32.70
14273;BME280;7220;49.450;11.052;2023-04-22T11:23:31;97485.03;;;24.89;31.09
14273;BME280;7220;49.450;11.052;2023-04-22T11:27:31;97484.94;;;27.03;28.69
14273;BME280;7220;49.450;11.052;2023-04-22T11:31:33;97481.66;;;28.35;27.27
14273;BME280;7220;49.450;11.052;2023-04-22T11:35:34;97480.00;;;29.32;25.24
14273;BME280;7220;49.450;11.052;2023-04-22T11:39:35;97492.22;;;29.93;24.27
14273;BME280;7220;49.450;11.052;2023-04-22T11:43:45;97475.41;;;29.83;23.94
14273;BME280;7220;49.450;11.052;2023-04-22T11:47:45;97482.06;;;29.43;24.20
14273;BME280;7220;49.450;11.052;2023-04-22T11:51:56;97477.53;;;29.17;24.39
14273;BME280;7220;49.450;11.052;2023-04-22T11:55:56;97465.19;;;29.07;23.96
14273;BME280;7220;49.450;11.052;2023-04-22T11:59:56;97470.28;;;29.04;23.74
14273;BME280;7220;49.450;11.052;2023-04-22T12:03:59;97471.88;;;28.73;24.17
14273;BME280;7220;49.450;11.052;2023-04-22T12:08:01;97468.47;;;28.84;25.54
14273;BME280;7220;49.450;11.052;2023-04-22T12:12:03;97467.41;;;29.24;24.88
14273;BME280;7220;49.450;11.052;2023-04-22T12:16:16;97457.69;;;28.96;25.15
14273;BME280;7220;49.450;11.052;2023-04-22T12:20:17;97464.16;;;29.08;25.29
14273;BME280;7220;49.450;11.052;2023-04-22T12:24:18;97453.91;;;29.36;25.69
14273;BME280;7220;49.450;11.052;2023-04-22T12:28:21;97456.16;;;29.39;25.33
14273;BME280;7220;49.450;11.052;2023-04-22T12:32:24;97442.28;;;29.40;25.38
14273;BME280;7220;49.450;11.052;2023-04-22T12:36:25;97437.34;;;28.85;25.04
14273;BME280;7220;49.450;11.052;2023-04-22T12:40:25;97437.81;;;28.62;25.57
14273;BME280;7220;49.450;11.052;2023-04-22T12:44:26;97436.31;;;28.79;25.06
14273;BME280;7220;49.450;11.052;2023-04-22T12:48:26;97438.00;;;28.80;25.36
14273;BME280;7220;49.450;11.052;2023-04-22T12:52:26;97444.53;;;28.73;25.85
14273;BME280;7220;49.450;11.052;2023-04-22T12:56:27;97432.75;;;28.20;26.47
14273;BME280;7220;49.450;11.052;2023-04-22T13:00:27;97421.66;;;27.61;26.41
14273;BME280;7220;49.450;11.052;2023-04-22T13:04:28;97422.06;;;27.18;27.69
14273;BME280;7220;49.450;11.052;2023-04-22T13:08:28;97416.19;;;27.41;27.41
14273;BME280;7220;49.450;11.052;2023-04-22T13:12:29;97417.03;;;27.82;26.31
14273;BME280;7220;49.450;11.052;2023-04-22T13:16:29;97403.66;;;28.39;26.80
14273;BME280;7220;49.450;11.052;2023-04-22T13:20:30;97412.25;;;28.43;26.57
14273;BME280;7220;49.450;11.052;2023-04-22T13:24:30;97402.31;;;27.96;26.63
14273;BME280;7220;49.450;11.052;2023-04-22T13:28:31;97397.75;;;27.70;27.19
14273;BME280;7220;49.450;11.052;2023-04-22T13:32:31;97385.97;;;27.83;27.46
14273;BME280;7220;49.450;11.052;2023-04-22T13:36:31;97378.75;;;28.15;26.57
14273;BME280;7220;49.450;11.052;2023-04-22T13:40:32;97367.16;;;29.04;26.84
14273;BME280;7220;49.450;11.052;2023-04-22T13:44:32;97367.78;;;30.01;25.84
14273;BME280;7220;49.450;11.052;2023-04-22T13:48:32;97372.91;;;30.34;25.07
14273;BME280;7220;49.450;11.052;2023-04-22T13:52:32;97363.00;;;30.15;23.91
14273;BME280;7220;49.450;11.052;2023-04-22T13:56:34;97358.66;;;30.26;24.01
14273;BME280;7220;49.450;11.052;2023-04-22T14:00:34;97359.56;;;30.57;23.96
14273;BME280;7220;49.450;11.052;2023-04-22T14:04:35;97360.25;;;30.33;22.32
14273;BME280;7220;49.450;11.052;2023-04-22T14:08:36;97355.97;;;29.82;23.24
14273;BME280;7220;49.450;11.052;2023-04-22T14:12:36;97362.78;;;29.54;23.42
14273;BME280;7220;49.450;11.052;2023-04-22T14:16:37;97357.03;;;29.37;23.48
14273;BME280;7220;49.450;11.052;2023-04-22T14:20:37;97358.38;;;29.27;24.48
14273;BME280;7220;49.450;11.052;2023-04-22T14:24:38;97351.75;;;29.10;24.58
14273;BME280;7220;49.450;11.052;2023-04-22T14:28:39;97360.44;;;28.68;24.84
14273;BME280;7220;49.450;11.052;2023-04-22T14:32:40;97348.75;;;28.47;25.26
14273;BME280;7220;49.450;11.052;2023-04-22T14:36:40;97351.41;;;28.61;25.39
14273;BME280;7220;49.450;11.052;2023-04-22T14:40:41;97357.06;;;28.21;24.72
14273;BME280;7220;49.450;11.052;2023-04-22T14:44:41;97356.09;;;28.08;24.74
14273;BME280;7220;49.450;11.052;2023-04-22T14:48:41;97347.47;;;27.98;24.83
14273;BME280;7220;49.450;11.052;2023-04-22T14:52:42;97353.56;;;28.00;25.02
14273;BME280;7220;49.450;11.052;2023-04-22T14:56:42;97346.69;;;27.84;25.53
14273;BME280;7220;49.450;11.052;2023-04-22T15:00:43;97343.56;;;27.67;26.29
14273;BME280;7220;49.450;11.052;2023-04-22T15:04:43;97326.78;;;27.57;26.26
14273;BME280;7220;49.450;11.052;2023-04-22T15:08:44;97344.41;;;27.34;26.19
14273;BME280;7220;49.450;11.052;2023-04-22T15:12:45;97340.03;;;27.19;25.79
14273;BME280;7220;49.450;11.052;2023-04-22T15:16:45;97326.16;;;27.01;25.50
14273;BME280;7220;49.450;11.052;2023-04-22T15:20:46;97327.84;;;27.02;25.50
14273;BME280;7220;49.450;11.052;2023-04-22T15:24:46;97331.97;;;26.71;25.82
14273;BME280;7220;49.450;11.052;2023-04-22T15:28:46;97335.94;;;26.48;25.53
14273;BME280;7220;49.450;11.052;2023-04-22T15:32:49;97323.94;;;26.29;26.10
14273;BME280;7220;49.450;11.052;2023-04-22T15:36:50;97329.38;;;26.29;26.69
14273;BME280;7220;49.450;11.052;2023-04-22T15:40:50;97340.94;;;25.96;26.38
14273;BME280;7220;49.450;11.052;2023-04-22T15:44:50;97326.50;;;25.60;26.49
14273;BME280;7220;49.450;11.052;2023-04-22T15:48:51;97329.56;;;25.22;26.79
14273;BME280;7220;49.450;11.052;2023-04-22T15:52:51;97329.31;;;25.17;27.49
14273;BME280;7220;49.450;11.052;2023-04-22T15:56:53;97330.69;;;25.06;27.38
14273;BME280;7220;49.450;11.052;2023-04-22T16:00:53;97335.94;;;24.86;27.69
14273;BME280;7220;49.450;11.052;2023-04-22T16:04:53;97345.22;;;24.55;27.57
14273;BME280;7220;49.450;11.052;2023-04-22T16:08:54;97333.03;;;24.29;27.78
14273;BME280;7220;49.450;11.052;2023-04-22T16:12:54;97344.97;;;24.13;27.88
14273;BME280;7220;49.450;11.052;2023-04-22T16:16:54;97340.28;;;23.92;27.98
14273;BME280;7220;49.450;11.052;2023-04-22T16:20:55;97340.47;;;23.75;28.77
14273;BME280;7220;49.450;11.052;2023-04-22T16:24:55;97336.72;;;23.61;28.74
14273;BME280;7220;49.450;11.052;2023-04-22T16:28:56;97340.47;;;23.45;29.34
14273;BME280;7220;49.450;11.052;2023-04-22T16:32:56;97346.91;;;23.29;29.86
14273;BME280;7220;49.450;11.052;2023-04-22T16:36:57;97333.31;;;23.14;29.48
14273;BME280;7220;49.450;11.052;2023-04-22T16:40:57;97328.31;;;23.03;29.70
14273;BME280;7220;49.450;11.052;2023-04-22T16:44:57;97342.97;;;22.94;29.89
14273;BME280;7220;49.450;11.052;2023-04-22T16:48:58;97327.03;;;22.76;30.14
14273;BME280;7220;49.450;11.052;2023-04-22T16:52:58;97341.47;;;22.68;30.58
14273;BME280;7220;49.450;11.052;2023-04-22T16:56:58;97336.41;;;22.42;31.50
14273;BME280;7220;49.450;11.052;2023-04-22T17:00:58;97344.06;;;22.30;31.37
14273;BME280;7220;49.450;11.052;2023-04-22T17:04:59;97352.94;;;22.15;32.17
14273;BME280;7220;49.450;11.052;2023-04-22T17:09:01;97348.28;;;22.01;32.21
14273;BME280;7220;49.450;11.052;2023-04-22T17:13:02;97344.59;;;21.94;32.89
14273;BME280;7220;49.450;11.052;2023-04-22T17:17:02;97359.31;;;21.91;32.87
14273;BME280;7220;49.450;11.052;2023-04-22T17:21:03;97354.44;;;21.86;33.67
14273;BME280;7220;49.450;11.052;2023-04-22T17:25:03;97347.88;;;21.72;33.56
14273;BME280;7220;49.450;11.052;2023-04-22T17:29:04;97347.66;;;21.82;33.57
14273;BME280;7220;49.450;11.052;2023-04-22T17:33:05;97335.16;;;21.81;33.20
14273;BME280;7220;49.450;11.052;2023-04-22T17:37:06;97339.22;;;21.85;33.21
14273;BME280;7220;49.450;11.052;2023-04-22T17:41:06;97337.00;;;21.89;33.44
14273;BME280;7220;49.450;11.052;2023-04-22T17:45:07;97325.72;;;21.77;33.51
14273;BME280;7220;49.450;11.052;2023-04-22T17:49:08;97323.34;;;21.74;34.07
14273;BME280;7220;49.450;11.052;2023-04-22T17:53:08;97336.16;;;21.80;34.63
14273;BME280;7220;49.450;11.052;2023-04-22T17:57:09;97328.28;;;21.70;34.94
14273;BME280;7220;49.450;11.052;2023-04-22T18:01:10;97336.59;;;21.61;35.68
14273;BME280;7220;49.450;11.052;2023-04-22T18:05:11;97344.19;;;21.57;36.06
14273;BME280;7220;49.450;11.052;2023-04-22T18:09:11;97343.19;;;21.50;37.10
14273;BME280;7220;49.450;11.052;2023-04-22T18:13:11;97331.91;;;21.38;36.34
14273;BME280;7220;49.450;11.052;2023-04-22T18:17:12;97344.56;;;21.37;35.63
14273;BME280;7220;49.450;11.052;2023-04-22T18:21:12;97353.16;;;21.41;34.84
14273;BME280;7220;49.450;11.052;2023-04-22T18:25:13;97343.84;;;21.43;34.54
14273;BME280;7220;49.450;11.052;2023-04-22T18:29:13;97355.25;;;21.06;35.39
14273;BME280;7220;49.450;11.052;2023-04-22T18:33:14;97346.28;;;21.14;35.20
14273;BME280;7220;49.450;11.052;2023-04-22T18:37:15;97353.56;;;21.13;35.42
14273;BME280;7220;49.450;11.052;2023-04-22T18:41:15;97352.38;;;21.07;35.99
14273;BME280;7220;49.450;11.052;2023-04-22T18:45:15;97369.09;;;21.03;36.00
14273;BME280;7220;49.450;11.052;2023-04-22T18:49:16;97376.50;;;21.01;35.86
14273;BME280;7220;49.450;11.052;2023-04-22T18:53:16;97381.25;;;21.07;35.79
14273;BME280;7220;49.450;11.052;2023-04-22T18:57:17;97383.09;;;20.98;35.88
14273;BME280;7220;49.450;11.052;2023-04-22T19:01:17;97383.25;;;20.88;36.48
14273;BME280;7220;49.450;11.052;2023-04-22T19:05:18;97379.19;;;20.76;36.48
14273;BME280;7220;49.450;11.052;2023-04-22T19:09:19;97392.38;;;20.79;36.55
14273;BME280;7220;49.450;11.052;2023-04-22T19:13:20;97387.06;;;20.53;37.60
14273;BME280;7220;49.450;11.052;2023-04-22T19:17:20;97393.66;;;20.58;37.58
14273;BME280;7220;49.450;11.052;2023-04-22T19:21:20;97408.50;;;20.54;37.85
14273;BME280;7220;49.450;11.052;2023-04-22T19:25:21;97407.13;;;20.50;38.13
14273;BME280;7220;49.450;11.052;2023-04-22T19:29:23;97414.69;;;20.38;38.47
14273;BME280;7220;49.450;11.052;2023-04-22T19:33:23;97420.41;;;20.35;38.10
14273;BME280;7220;49.450;11.052;2023-04-22T19:37:24;97415.78;;;20.19;38.83
14273;BME280;7220;49.450;11.052;2023-04-22T19:41:28;97427.22;;;20.13;39.09
14273;BME280;7220;49.450;11.052;2023-04-22T19:45:29;97418.06;;;19.97;39.15
14273;BME280;7220;49.450;11.052;2023-04-22T19:49:30;97419.59;;;20.00;40.15
14273;BME280;7220;49.450;11.052;2023-04-22T19:53:32;97425.16;;;19.98;40.23
14273;BME280;7220;49.450;11.052;2023-04-22T19:57:37;97434.75;;;20.01;40.30
14273;BME280;7220;49.450;11.052;2023-04-22T20:01:37;97441.47;;;19.89;41.82
14273;BME280;7220;49.450;11.052;2023-04-22T20:05:38;97449.78;;;19.77;42.25
14273;BME280;7220;49.450;11.052;2023-04-22T20:09:38;97449.66;;;19.61;44.16
14273;BME280;7220;49.450;11.052;2023-04-22T20:13:39;97442.28;;;19.36;45.72
14273;BME280;7220;49.450;11.052;2023-04-22T20:17:41;97444.66;;;19.21;46.46
14273;BME280;7220;49.450;11.052;2023-04-22T20:21:42;97445.53;;;19.22;47.88
14273;BME280;7220;49.450;11.052;2023-04-22T20:25:43;97432.44;;;19.09;48.27
14273;BME280;7220;49.450;11.052;2023-04-22T20:29:45;97433.28;;;19.10;49.32
14273;BME280;7220;49.450;11.052;2023-04-22T20:33:45;97434.06;;;19.02;49.71
14273;BME280;7220;49.450;11.052;2023-04-22T20:37:46;97439.91;;;19.15;50.97
14273;BME280;7220;49.450;11.052;2023-04-22T20:41:47;97450.06;;;19.03;51.34
14273;BME280;7220;49.450;11.052;2023-04-22T20:45:48;97453.41;;;18.87;53.67
14273;BME280;7220;49.450;11.052;2023-04-22T20:49:49;97445.78;;;18.92;53.51
14273;BME280;7220;49.450;11.052;2023-04-22T20:53:49;97441.28;;;18.83;53.71
14273;BME280;7220;49.450;11.052;2023-04-22T20:57:49;97428.66;;;18.84;54.34
14273;BME280;7220;49.450;11.052;2023-04-22T21:01:51;97433.66;;;18.79;53.98
14273;BME280;7220;49.450;11.052;2023-04-22T21:05:52;97421.88;;;18.80;54.26
14273;BME280;7220;49.450;11.052;2023-04-22T21:09:53;97435.44;;;18.88;54.54
14273;BME280;7220;49.450;11.052;2023-04-22T21:13:53;97430.50;;;18.83;53.37
14273;BME280;7220;49.450;11.052;2023-04-22T21:17:54;97433.66;;;18.79;53.21
14273;BME280;7220;49.450;11.052;2023-04-22T21:21:55;97435.66;;;18.76;52.97
14273;BME280;7220;49.450;11.052;2023-04-22T21:25:59;97437.09;;;18.71;52.29
14273;BME280;7220;49.450;11.052;2023-04-22T21:30:00;97441.94;;;18.67;52.32
14273;BME280;7220;49.450;11.052;2023-04-22T21:34:05;97438.50;;;18.57;52.31
14273;BME280;7220;49.450;11.052;2023-04-22T21:38:08;97444.94;;;18.64;51.97
14273;BME280;7220;49.450;11.052;2023-04-22T21:42:09;97433.28;;;18.73;51.02
14273;BME280;7220;49.450;11.052;2023-04-22T21:46:09;97437.66;;;18.74;50.81
14273;BME280;7220;49.450;11.052;2023-04-22T21:50:10;97467.66;;;18.80;50.67
14273;BME280;7220;49.450;11.052;2023-04-22T21:54:10;97470.88;;;18.65;51.34
14273;BME280;7220;49.450;11.052;2023-04-22T21:58:11;97459.81;;;18.40;52.23
14273;BME280;7220;49.450;11.052;2023-04-22T22:02:11;97477.56;;;18.33;52.11
14273;BME280;7220;49.450;11.052;2023-04-22T22:06:11;97468.09;;;18.01;52.81
14273;BME280;7220;49.450;11.052;2023-04-22T22:10:14;97484.88;;;18.03;53.43
14273;BME280;7220;49.450;11.052;2023-04-22T22:14:15;97492.13;;;18.03;54.06
14273;BME280;7220;49.450;11.052;2023-04-22T22:18:15;97482.38;;;17.92;54.38
14273;BME280;7220;49.450;11.052;2023-04-22T22:22:16;97500.03;;;17.94;54.23
14273;BME280;7220;49.450;11.052;2023-04-22T22:26:16;97510.78;;;17.94;53.76
14273;BME280;7220;49.450;11.052;2023-04-22T22:30:17;97522.16;;;17.78;54.27
14273;BME280;7220;49.450;11.052;2023-04-22T22:34:20;97527.53;;;17.78;54.80
14273;BME280;7220;49.450;11.052;2023-04-22T22:38:23;97494.19;;;17.61;55.35
14273;BME280;7220;49.450;11.052;2023-04-22T22:42:23;97480.91;;;17.60;56.82
14273;BME280;7220;49.450;11.052;2023-04-22T22:46:23;97481.75;;;17.50;57.36
14273;BME280;7220;49.450;11.052;2023-04-22T22:50:24;97478.22;;;17.50;58.03
14273;BME280;7220;49.450;11.052;2023-04-22T22:54:25;97491.97;;;17.37;57.34
14273;BME280;7220;49.450;11.052;2023-04-22T22:58:25;97474.28;;;17.44;57.45
14273;BME280;7220;49.450;11.052;2023-04-22T23:02:26;97450.41;;;17.31;58.72
14273;BME280;7220;49.450;11.052;2023-04-22T23:06:26;97480.09;;;17.30;59.61
14273;BME280;7220;49.450;11.052;2023-04-22T23:10:26;97483.06;;;17.27;59.84
14273;BME280;7220;49.450;11.052;2023-04-22T23:14:27;97460.88;;;17.25;59.25
14273;BME280;7220;49.450;11.052;2023-04-22T23:18:27;97440.25;;;17.25;60.16
14273;BME280;7220;49.450;11.052;2023-04-22T23:22:29;97426.41;;;17.10;60.94
14273;BME280;7220;49.450;11.052;2023-04-22T23:26:31;97427.38;;;17.09;60.48
14273;BME280;7220;49.450;11.052;2023-04-22T23:30:31;97419.59;;;16.86;61.48
14273;BME280;7220;49.450;11.052;2023-04-22T23:34:32;97437.78;;;16.63;62.04
14273;BME280;7220;49.450;11.052;2023-04-22T23:38:34;97420.16;;;16.61;61.73
14273;BME280;7220;49.450;11.052;2023-04-22T23:42:34;97429.47;;;16.66;62.21
14273;BME280;7220;49.450;11.052;2023-04-22T23:46:34;97448.50;;;16.53;62.40
14273;BME280;7220;49.450;11.052;2023-04-22T23:50:35;97448.94;;;16.59;62.94
14273;BME280;7220;49.450;11.052;2023-04-22T23:54:35;97443.44;;;16.60;64.53
14273;BME280;7220;49.450;11.052;2023-04-22T23:58:36;97451.19;;;16.53;65.35
